sensor_id;sensor_type;location;lat;lon;timestamp;temperature;humidity
16287;DHT22;8251;53.568;10.018;2022-09-20T00:01:25;14.00;91.60
16287;DHT22;8251;53.568;10.018;2022-09-20T00:03:55;14.00;91.60
16287;DHT22;8251;53.568;10.018;2022-09-20T00:06:24;14.00;91.50
16287;DHT22;8251;53.568;10.018;2022-09-20T00:08:52;13.90;91.50
16287;DHT22;8251;53.568;10.018;2022-09-20T00:11:21;13.90;91.50
16287;DHT22;8251;53.568;10.018;2022-09-20T00:13:51;13.90;91.60
16287;DHT22;8251;53.568;10.018;2022-09-20T00:16:21;13.90;91.60
16287;DHT22;8251;53.568;10.018;2022-09-20T00:18:49;13.80;91.60
16287;DHT22;8251;53.568;10.018;2022-09-20T00:21:17;13.80;91.70
16287;DHT22;8251;53.568;10.018;2022-09-20T00:23:44;13.80;91.80
16287;DHT22;8251;53.568;10.018;2022-09-20T00:26:11;13.80;91.80
16287;DHT22;8251;53.568;10.018;2022-09-20T00:28:39;13.80;91.80
16287;DHT22;8251;53.568;10.018;2022-09-20T00:31:08;13.80;91.70
16287;DHT22;8251;53.568;10.018;2022-09-20T00:33:36;13.80;91.70
16287;DHT22;8251;53.568;10.018;2022-09-20T00:36:21;13.80;91.70
16287;DHT22;8251;53.568;10.018;2022-09-20T00:38:47;13.80;91.70
16287;DHT22;8251;53.568;10.018;2022-09-20T00:41:14;13.80;91.70
16287;DHT22;8251;53.568;10.018;2022-09-20T00:43:42;13.80;91.70
16287;DHT22;8251;53.568;10.018;2022-09-20T00:46:19;13.80;91.80
16287;DHT22;8251;53.568;10.018;2022-09-20T00:48:49;13.80;91.80
16287;DHT22;8251;53.568;10.018;2022-09-20T00:51:23;13.80;91.80
16287;DHT22;8251;53.568;10.018;2022-09-20T00:53:53;13.80;91.80
16287;DHT22;8251;53.568;10.018;2022-09-20T00:56:24;13.70;91.80
16287;DHT22;8251;53.568;10.018;2022-09-20T00:58:58;13.70;91.80
16287;DHT22;8251;53.568;10.018;2022-09-20T01:01:28;13.70;91.80
16287;DHT22;8251;53.568;10.018;2022-09-20T01:03:56;13.70;91.80
16287;DHT22;8251;53.568;10.018;2022-09-20T01:06:23;13.70;91.80
16287;DHT22;8251;53.568;10.018;2022-09-20T01:08:51;13.70;91.80
16287;DHT22;8251;53.568;10.018;2022-09-20T01:11:19;13.70;91.80
16287;DHT22;8251;53.568;10.018;2022-09-20T01:13:46;13.70;91.90
16287;DHT22;8251;53.568;10.018;2022-09-20T01:16:14;13.70;91.90
16287;DHT22;8251;53.568;10.018;2022-09-20T01:18:43;13.70;91.90
16287;DHT22;8251;53.568;10.018;2022-09-20T01:21:11;13.70;91.80
16287;DHT22;8251;53.568;10.018;2022-09-20T01:23:52;13.70;91.80
16287;DHT22;8251;53.568;10.018;2022-09-20T01:26:39;13.60;91.80
16287;DHT22;8251;53.568;10.018;2022-09-20T01:29:22;13.60;91.80
16287;DHT22;8251;53.568;10.018;2022-09-20T01:31:53;13.60;91.80
16287;DHT22;8251;53.568;10.018;2022-09-20T01:34:24;13.60;91.90
16287;DHT22;8251;53.568;10.018;2022-09-20T01:36:56;13.60;91.90
16287;DHT22;8251;53.568;10.018;2022-09-20T01:39:35;13.50;92.00
16287;DHT22;8251;53.568;10.018;2022-09-20T01:42:05;13.60;92.00
16287;DHT22;8251;53.568;10.018;2022-09-20T01:44:37;13.60;92.00
16287;DHT22;8251;53.568;10.018;2022-09-20T01:47:12;13.60;92.00
16287;DHT22;8251;53.568;10.018;2022-09-20T01:49:51;13.50;92.00
16287;DHT22;8251;53.568;10.018;2022-09-20T01:52:59;13.50;92.10
16287;DHT22;8251;53.568;10.018;2022-09-20T01:59:42;13.50;92.00
16287;DHT22;8251;53.568;10.018;2022-09-20T02:02:32;13.50;91.90
16287;DHT22;8251;53.568;10.018;2022-09-20T02:05:17;13.50;91.90
16287;DHT22;8251;53.568;10.018;2022-09-20T02:08:07;13.50;91.90
16287;DHT22;8251;53.568;10.018;2022-09-20T02:11:11;13.40;91.80
16287;DHT22;8251;53.568;10.018;2022-09-20T02:14:00;13.40;91.90
16287;DHT22;8251;53.568;10.018;2022-09-20T02:16:49;13.40;91.90
16287;DHT22;8251;53.568;10.018;2022-09-20T02:19:27;13.40;91.90
16287;DHT22;8251;53.568;10.018;2022-09-20T02:22:09;13.40;91.90
16287;DHT22;8251;53.568;10.018;2022-09-20T02:24:49;13.30;91.90
16287;DHT22;8251;53.568;10.018;2022-09-20T02:27:24;13.40;91.90
16287;DHT22;8251;53.568;10.018;2022-09-20T02:30:03;13.30;91.90
16287;DHT22;8251;53.568;10.018;2022-09-20T02:32:51;13.30;91.80
16287;DHT22;8251;53.568;10.018;2022-09-20T02:35:41;13.30;91.90
16287;DHT22;8251;53.568;10.018;2022-09-20T02:38:27;13.30;91.80
16287;DHT22;8251;53.568;10.018;2022-09-20T02:41:08;13.30;91.80
16287;DHT22;8251;53.568;10.018;2022-09-20T02:43:45;13.20;91.70
16287;DHT22;8251;53.568;10.018;2022-09-20T02:46:21;13.20;91.80
16287;DHT22;8251;53.568;10.018;2022-09-20T02:48:57;13.20;91.80
16287;DHT22;8251;53.568;10.018;2022-09-20T02:51:30;13.20;91.80
16287;DHT22;8251;53.568;10.018;2022-09-20T02:54:05;13.20;91.80
16287;DHT22;8251;53.568;10.018;2022-09-20T02:56:41;13.10;91.80
16287;DHT22;8251;53.568;10.018;2022-09-20T02:59:22;13.10;91.70
16287;DHT22;8251;53.568;10.018;2022-09-20T03:01:58;13.10;91.70
16287;DHT22;8251;53.568;10.018;2022-09-20T03:04:38;13.10;91.70
16287;DHT22;8251;53.568;10.018;2022-09-20T03:07:16;13.10;91.70
16287;DHT22;8251;53.568;10.018;2022-09-20T03:09:52;13.10;91.70
16287;DHT22;8251;53.568;10.018;2022-09-20T03:12:31;13.00;91.60
16287;DHT22;8251;53.568;10.018;2022-09-20T03:15:12;13.00;91.70
16287;DHT22;8251;53.568;10.018;2022-09-20T03:17:47;13.00;91.70
16287;DHT22;8251;53.568;10.018;2022-09-20T03:20:28;13.00;91.70
16287;DHT22;8251;53.568;10.018;2022-09-20T03:23:00;13.00;91.60
16287;DHT22;8251;53.568;10.018;2022-09-20T03:25:45;13.00;91.60
16287;DHT22;8251;53.568;10.018;2022-09-20T03:31:18;12.90;91.60
16287;DHT22;8251;53.568;10.018;2022-09-20T03:33:53;12.90;91.50
16287;DHT22;8251;53.568;10.018;2022-09-20T03:36:40;12.90;91.50
16287;DHT22;8251;53.568;10.018;2022-09-20T03:39:39;12.90;91.40
16287;DHT22;8251;53.568;10.018;2022-09-20T03:42:15;12.80;91.40
16287;DHT22;8251;53.568;10.018;2022-09-20T03:45:03;12.80;91.50
16287;DHT22;8251;53.568;10.018;2022-09-20T03:50:45;12.70;91.50
16287;DHT22;8251;53.568;10.018;2022-09-20T03:53:44;12.80;91.60
16287;DHT22;8251;53.568;10.018;2022-09-20T04:02:31;12.80;91.40
16287;DHT22;8251;53.568;10.018;2022-09-20T04:05:05;12.70;91.40
16287;DHT22;8251;53.568;10.018;2022-09-20T04:07:43;12.70;91.40
16287;DHT22;8251;53.568;10.018;2022-09-20T04:10:26;12.70;91.30
16287;DHT22;8251;53.568;10.018;2022-09-20T04:13:10;12.70;91.40
16287;DHT22;8251;53.568;10.018;2022-09-20T04:15:49;12.70;91.50
16287;DHT22;8251;53.568;10.018;2022-09-20T04:18:28;12.70;91.60
16287;DHT22;8251;53.568;10.018;2022-09-20T04:20:59;12.70;91.60
16287;DHT22;8251;53.568;10.018;2022-09-20T04:23:37;12.70;91.60
16287;DHT22;8251;53.568;10.018;2022-09-20T04:26:06;12.80;91.50
16287;DHT22;8251;53.568;10.018;2022-09-20T04:28:39;12.70;91.40
16287;DHT22;8251;53.568;10.018;2022-09-20T04:31:17;12.70;91.30
16287;DHT22;8251;53.568;10.018;2022-09-20T04:33:49;12.70;91.30
16287;DHT22;8251;53.568;10.018;2022-09-20T04:36:27;12.70;91.30
16287;DHT22;8251;53.568;10.018;2022-09-20T04:39:10;12.70;91.10
16287;DHT22;8251;53.568;10.018;2022-09-20T04:45:36;12.70;91.10
16287;DHT22;8251;53.568;10.018;2022-09-20T04:55:00;12.60;91.20
16287;DHT22;8251;53.568;10.018;2022-09-20T04:57:56;12.50;91.20
16287;DHT22;8251;53.568;10.018;2022-09-20T05:00:41;12.50;91.30
16287;DHT22;8251;53.568;10.018;2022-09-20T05:06:36;12.50;91.30
16287;DHT22;8251;53.568;10.018;2022-09-20T05:12:33;12.40;91.50
16287;DHT22;8251;53.568;10.018;2022-09-20T05:15:34;12.40;91.50
16287;DHT22;8251;53.568;10.018;2022-09-20T05:18:35;12.50;91.60
16287;DHT22;8251;53.568;10.018;2022-09-20T05:24:22;12.40;91.50
16287;DHT22;8251;53.568;10.018;2022-09-20T05:27:04;12.50;91.50
16287;DHT22;8251;53.568;10.018;2022-09-20T05:29:43;12.50;91.50
16287;DHT22;8251;53.568;10.018;2022-09-20T05:32:38;12.40;91.40
16287;DHT22;8251;53.568;10.018;2022-09-20T05:35:20;12.50;91.40
16287;DHT22;8251;53.568;10.018;2022-09-20T05:38:04;12.40;91.50
16287;DHT22;8251;53.568;10.018;2022-09-20T05:40:47;12.50;91.60
16287;DHT22;8251;53.568;10.018;2022-09-20T05:43:28;12.50;91.70
16287;DHT22;8251;53.568;10.018;2022-09-20T05:46:04;12.50;91.60
16287;DHT22;8251;53.568;10.018;2022-09-20T05:48:43;12.50;91.60
16287;DHT22;8251;53.568;10.018;2022-09-20T05:51:35;12.50;91.60
16287;DHT22;8251;53.568;10.018;2022-09-20T05:54:26;12.50;91.60
16287;DHT22;8251;53.568;10.018;2022-09-20T05:57:06;12.60;91.60
16287;DHT22;8251;53.568;10.018;2022-09-20T05:59:47;12.50;91.60
16287;DHT22;8251;53.568;10.018;2022-09-20T06:02:27;12.60;91.60
16287;DHT22;8251;53.568;10.018;2022-09-20T06:05:02;12.60;91.70
16287;DHT22;8251;53.568;10.018;2022-09-20T06:07:54;12.60;91.70
16287;DHT22;8251;53.568;10.018;2022-09-20T06:10:45;12.70;91.90
16287;DHT22;8251;53.568;10.018;2022-09-20T06:13:52;12.70;91.90
16287;DHT22;8251;53.568;10.018;2022-09-20T06:16:42;12.80;91.80
16287;DHT22;8251;53.568;10.018;2022-09-20T06:19:19;12.90;91.80
16287;DHT22;8251;53.568;10.018;2022-09-20T06:21:54;13.00;91.80
16287;DHT22;8251;53.568;10.018;2022-09-20T06:24:31;13.10;91.80
16287;DHT22;8251;53.568;10.018;2022-09-20T06:27:03;13.20;92.00
16287;DHT22;8251;53.568;10.018;2022-09-20T06:29:34;13.50;91.50
16287;DHT22;8251;53.568;10.018;2022-09-20T06:32:02;13.80;91.30
16287;DHT22;8251;53.568;10.018;2022-09-20T06:34:29;14.40;90.90
16287;DHT22;8251;53.568;10.018;2022-09-20T06:37:07;15.00;90.00
16287;DHT22;8251;53.568;10.018;2022-09-20T06:39:56;15.80;87.20
16287;DHT22;8251;53.568;10.018;2022-09-20T06:42:43;16.60;83.80
16287;DHT22;8251;53.568;10.018;2022-09-20T06:45:10;17.30;81.00
16287;DHT22;8251;53.568;10.018;2022-09-20T06:47:36;17.70;78.90
16287;DHT22;8251;53.568;10.018;2022-09-20T06:50:04;18.00;77.70
16287;DHT22;8251;53.568;10.018;2022-09-20T06:52:33;18.10;77.50
16287;DHT22;8251;53.568;10.018;2022-09-20T06:55:00;18.00;76.20
16287;DHT22;8251;53.568;10.018;2022-09-20T06:57:35;17.90;76.20
16287;DHT22;8251;53.568;10.018;2022-09-20T07:00:03;18.10;76.10
16287;DHT22;8251;53.568;10.018;2022-09-20T07:02:31;18.40;75.70
16287;DHT22;8251;53.568;10.018;2022-09-20T07:04:58;18.50;74.90
16287;DHT22;8251;53.568;10.018;2022-09-20T07:07:25;18.30;74.70
16287;DHT22;8251;53.568;10.018;2022-09-20T07:10:05;18.00;75.70
16287;DHT22;8251;53.568;10.018;2022-09-20T07:12:45;17.60;76.50
16287;DHT22;8251;53.568;10.018;2022-09-20T07:15:16;17.40;78.00
16287;DHT22;8251;53.568;10.018;2022-09-20T07:17:47;17.30;79.20
16287;DHT22;8251;53.568;10.018;2022-09-20T07:20:14;17.50;79.10
16287;DHT22;8251;53.568;10.018;2022-09-20T07:22:40;17.70;78.50
16287;DHT22;8251;53.568;10.018;2022-09-20T07:25:09;17.60;77.90
16287;DHT22;8251;53.568;10.018;2022-09-20T07:27:36;17.40;78.20
16287;DHT22;8251;53.568;10.018;2022-09-20T07:30:05;17.10;79.10
16287;DHT22;8251;53.568;10.018;2022-09-20T07:32:32;16.90;80.10
16287;DHT22;8251;53.568;10.018;2022-09-20T07:35:01;16.90;80.70
16287;DHT22;8251;53.568;10.018;2022-09-20T07:37:28;16.90;80.70
16287;DHT22;8251;53.568;10.018;2022-09-20T07:39:54;17.00;80.50
16287;DHT22;8251;53.568;10.018;2022-09-20T07:42:24;17.10;80.50
16287;DHT22;8251;53.568;10.018;2022-09-20T07:44:51;17.10;80.50
16287;DHT22;8251;53.568;10.018;2022-09-20T07:47:18;17.10;80.50
16287;DHT22;8251;53.568;10.018;2022-09-20T07:49:46;17.20;80.50
16287;DHT22;8251;53.568;10.018;2022-09-20T07:52:12;17.30;78.80
16287;DHT22;8251;53.568;10.018;2022-09-20T07:54:41;17.30;78.60
16287;DHT22;8251;53.568;10.018;2022-09-20T07:57:08;17.30;78.70
16287;DHT22;8251;53.568;10.018;2022-09-20T07:59:36;17.30;79.20
16287;DHT22;8251;53.568;10.018;2022-09-20T08:02:03;17.20;79.80
16287;DHT22;8251;53.568;10.018;2022-09-20T08:04:30;17.10;80.20
16287;DHT22;8251;53.568;10.018;2022-09-20T08:06:56;17.10;80.70
16287;DHT22;8251;53.568;10.018;2022-09-20T08:09:25;17.00;81.30
16287;DHT22;8251;53.568;10.018;2022-09-20T08:11:52;17.10;81.10
16287;DHT22;8251;53.568;10.018;2022-09-20T08:14:20;17.40;80.40
16287;DHT22;8251;53.568;10.018;2022-09-20T08:16:50;18.10;78.70
16287;DHT22;8251;53.568;10.018;2022-09-20T08:19:19;19.00;76.30
16287;DHT22;8251;53.568;10.018;2022-09-20T08:21:48;19.90;73.30
16287;DHT22;8251;53.568;10.018;2022-09-20T08:24:15;20.70;70.50
16287;DHT22;8251;53.568;10.018;2022-09-20T08:26:43;21.50;67.00
16287;DHT22;8251;53.568;10.018;2022-09-20T08:29:11;22.20;64.60
16287;DHT22;8251;53.568;10.018;2022-09-20T08:31:39;23.30;61.40
16287;DHT22;8251;53.568;10.018;2022-09-20T08:34:10;24.50;57.70
16287;DHT22;8251;53.568;10.018;2022-09-20T08:36:40;25.70;55.20
16287;DHT22;8251;53.568;10.018;2022-09-20T08:39:09;26.60;52.10
16287;DHT22;8251;53.568;10.018;2022-09-20T08:41:45;27.60;50.40
16287;DHT22;8251;53.568;10.018;2022-09-20T08:44:17;28.20;47.00
16287;DHT22;8251;53.568;10.018;2022-09-20T08:47:02;28.50;46.80
16287;DHT22;8251;53.568;10.018;2022-09-20T08:49:32;28.30;47.00
16287;DHT22;8251;53.568;10.018;2022-09-20T08:52:01;27.80;46.40
16287;DHT22;8251;53.568;10.018;2022-09-20T08:54:30;27.30;47.40
16287;DHT22;8251;53.568;10.018;2022-09-20T08:57:00;26.90;48.90
16287;DHT22;8251;53.568;10.018;2022-09-20T08:59:30;26.40;48.20
16287;DHT22;8251;53.568;10.018;2022-09-20T09:01:57;25.80;50.10
16287;DHT22;8251;53.568;10.018;2022-09-20T09:04:33;25.00;50.20
16287;DHT22;8251;53.568;10.018;2022-09-20T09:07:01;24.40;51.80
16287;DHT22;8251;53.568;10.018;2022-09-20T09:09:29;23.80;51.60
16287;DHT22;8251;53.568;10.018;2022-09-20T09:11:59;23.10;53.00
16287;DHT22;8251;53.568;10.018;2022-09-20T09:14:28;22.40;53.70
16287;DHT22;8251;53.568;10.018;2022-09-20T09:17:15;22.00;55.00
16287;DHT22;8251;53.568;10.018;2022-09-20T09:19:45;21.50;56.20
16287;DHT22;8251;53.568;10.018;2022-09-20T09:22:21;21.30;56.80
16287;DHT22;8251;53.568;10.018;2022-09-20T09:25:08;21.00;57.00
16287;DHT22;8251;53.568;10.018;2022-09-20T09:27:49;20.80;58.00
16287;DHT22;8251;53.568;10.018;2022-09-20T09:30:19;20.60;59.50
16287;DHT22;8251;53.568;10.018;2022-09-20T09:32:46;20.50;59.00
16287;DHT22;8251;53.568;10.018;2022-09-20T09:35:28;20.40;60.00
16287;DHT22;8251;53.568;10.018;2022-09-20T09:37:59;20.50;61.30
16287;DHT22;8251;53.568;10.018;2022-09-20T09:40:27;20.40;60.00
16287;DHT22;8251;53.568;10.018;2022-09-20T09:42:56;20.40;59.80
16287;DHT22;8251;53.568;10.018;2022-09-20T09:45:26;20.70;58.70
16287;DHT22;8251;53.568;10.018;2022-09-20T09:47:55;20.90;58.20
16287;DHT22;8251;53.568;10.018;2022-09-20T09:50:25;21.00;58.60
16287;DHT22;8251;53.568;10.018;2022-09-20T09:53:08;21.10;59.10
16287;DHT22;8251;53.568;10.018;2022-09-20T09:56:01;20.90;56.70
16287;DHT22;8251;53.568;10.018;2022-09-20T09:58:43;20.80;57.20
16287;DHT22;8251;53.568;10.018;2022-09-20T10:01:22;20.70;58.20
16287;DHT22;8251;53.568;10.018;2022-09-20T10:03:57;20.70;58.40
16287;DHT22;8251;53.568;10.018;2022-09-20T10:06:36;20.60;57.20
16287;DHT22;8251;53.568;10.018;2022-09-20T10:09:32;20.40;56.40
16287;DHT22;8251;53.568;10.018;2022-09-20T10:12:15;20.20;58.20
16287;DHT22;8251;53.568;10.018;2022-09-20T10:15:04;20.10;60.00
16287;DHT22;8251;53.568;10.018;2022-09-20T10:17:44;20.20;58.90
16287;DHT22;8251;53.568;10.018;2022-09-20T10:20:33;20.10;59.00
16287;DHT22;8251;53.568;10.018;2022-09-20T10:23:14;20.00;56.80
16287;DHT22;8251;53.568;10.018;2022-09-20T10:25:48;20.00;56.60
16287;DHT22;8251;53.568;10.018;2022-09-20T10:28:28;20.10;56.60
16287;DHT22;8251;53.568;10.018;2022-09-20T10:31:04;20.30;56.50
16287;DHT22;8251;53.568;10.018;2022-09-20T10:33:37;20.30;56.00
16287;DHT22;8251;53.568;10.018;2022-09-20T10:36:17;20.30;56.70
16287;DHT22;8251;53.568;10.018;2022-09-20T10:38:55;20.50;56.80
16287;DHT22;8251;53.568;10.018;2022-09-20T10:41:38;20.50;56.80
16287;DHT22;8251;53.568;10.018;2022-09-20T10:44:37;20.50;56.70
16287;DHT22;8251;53.568;10.018;2022-09-20T10:47:08;20.50;55.80
16287;DHT22;8251;53.568;10.018;2022-09-20T10:49:41;20.40;55.40
16287;DHT22;8251;53.568;10.018;2022-09-20T10:52:26;20.20;55.90
16287;DHT22;8251;53.568;10.018;2022-09-20T10:55:29;20.20;56.30
16287;DHT22;8251;53.568;10.018;2022-09-20T10:58:27;20.10;56.80
16287;DHT22;8251;53.568;10.018;2022-09-20T11:00:59;19.90;57.00
16287;DHT22;8251;53.568;10.018;2022-09-20T11:03:43;19.80;56.80
16287;DHT22;8251;53.568;10.018;2022-09-20T11:06:19;19.80;56.70
16287;DHT22;8251;53.568;10.018;2022-09-20T11:08:49;19.80;57.40
16287;DHT22;8251;53.568;10.018;2022-09-20T11:11:24;19.80;57.20
16287;DHT22;8251;53.568;10.018;2022-09-20T11:13:57;19.80;57.40
16287;DHT22;8251;53.568;10.018;2022-09-20T11:16:33;19.90;58.60
16287;DHT22;8251;53.568;10.018;2022-09-20T11:19:07;20.00;57.70
16287;DHT22;8251;53.568;10.018;2022-09-20T11:21:45;19.90;55.10
16287;DHT22;8251;53.568;10.018;2022-09-20T11:24:19;20.00;55.00
16287;DHT22;8251;53.568;10.018;2022-09-20T11:26:55;20.10;55.20
16287;DHT22;8251;53.568;10.018;2022-09-20T11:29:29;20.20;54.20
16287;DHT22;8251;53.568;10.018;2022-09-20T11:32:07;20.20;54.20
16287;DHT22;8251;53.568;10.018;2022-09-20T11:34:46;20.40;54.00
16287;DHT22;8251;53.568;10.018;2022-09-20T11:37:36;20.50;53.40
16287;DHT22;8251;53.568;10.018;2022-09-20T11:40:13;20.60;53.50
16287;DHT22;8251;53.568;10.018;2022-09-20T11:42:43;20.60;54.50
16287;DHT22;8251;53.568;10.018;2022-09-20T11:45:10;20.50;54.30
16287;DHT22;8251;53.568;10.018;2022-09-20T11:47:42;20.30;55.50
16287;DHT22;8251;53.568;10.018;2022-09-20T11:50:49;20.20;54.60
16287;DHT22;8251;53.568;10.018;2022-09-20T11:53:33;20.10;54.50
16287;DHT22;8251;53.568;10.018;2022-09-20T11:56:09;20.30;55.50
16287;DHT22;8251;53.568;10.018;2022-09-20T11:58:49;20.60;54.90
16287;DHT22;8251;53.568;10.018;2022-09-20T12:01:27;20.90;52.90
16287;DHT22;8251;53.568;10.018;2022-09-20T12:04:04;21.30;53.50
16287;DHT22;8251;53.568;10.018;2022-09-20T12:06:40;21.60;53.10
16287;DHT22;8251;53.568;10.018;2022-09-20T12:09:24;22.00;51.30
16287;DHT22;8251;53.568;10.018;2022-09-20T12:11:51;22.30;50.00
16287;DHT22;8251;53.568;10.018;2022-09-20T12:14:23;22.40;49.80
16287;DHT22;8251;53.568;10.018;2022-09-20T12:16:50;22.60;50.40
16287;DHT22;8251;53.568;10.018;2022-09-20T12:19:36;22.70;50.20
16287;DHT22;8251;53.568;10.018;2022-09-20T12:22:30;22.80;49.20
16287;DHT22;8251;53.568;10.018;2022-09-20T12:25:35;22.70;48.60
16287;DHT22;8251;53.568;10.018;2022-09-20T12:28:10;22.40;48.60
16287;DHT22;8251;53.568;10.018;2022-09-20T12:30:40;22.10;48.80
16287;DHT22;8251;53.568;10.018;2022-09-20T12:33:18;22.10;49.20
16287;DHT22;8251;53.568;10.018;2022-09-20T12:35:57;22.20;48.10
16287;DHT22;8251;53.568;10.018;2022-09-20T12:38:58;22.50;48.00
16287;DHT22;8251;53.568;10.018;2022-09-20T12:41:26;22.80;46.60
16287;DHT22;8251;53.568;10.018;2022-09-20T12:44:03;22.90;47.50
16287;DHT22;8251;53.568;10.018;2022-09-20T12:46:48;23.10;48.20
16287;DHT22;8251;53.568;10.018;2022-09-20T12:49:22;23.10;47.50
16287;DHT22;8251;53.568;10.018;2022-09-20T12:52:35;22.90;46.50
16287;DHT22;8251;53.568;10.018;2022-09-20T12:55:39;22.40;47.00
16287;DHT22;8251;53.568;10.018;2022-09-20T12:58:33;22.10;47.40
16287;DHT22;8251;53.568;10.018;2022-09-20T13:01:29;21.90;47.00
16287;DHT22;8251;53.568;10.018;2022-09-20T13:07:43;21.50;47.90
16287;DHT22;8251;53.568;10.018;2022-09-20T13:10:19;21.50;48.90
16287;DHT22;8251;53.568;10.018;2022-09-20T13:12:49;21.50;49.20
16287;DHT22;8251;53.568;10.018;2022-09-20T13:15:18;21.40;48.30
16287;DHT22;8251;53.568;10.018;2022-09-20T13:17:47;21.30;48.50
16287;DHT22;8251;53.568;10.018;2022-09-20T13:20:21;21.30;50.80
16287;DHT22;8251;53.568;10.018;2022-09-20T13:22:51;21.30;51.10
16287;DHT22;8251;53.568;10.018;2022-09-20T13:25:21;21.30;50.80
16287;DHT22;8251;53.568;10.018;2022-09-20T13:27:53;21.20;51.40
16287;DHT22;8251;53.568;10.018;2022-09-20T13:30:24;21.10;51.60
16287;DHT22;8251;53.568;10.018;2022-09-20T13:32:53;21.00;51.10
16287;DHT22;8251;53.568;10.018;2022-09-20T13:35:22;20.80;51.20
16287;DHT22;8251;53.568;10.018;2022-09-20T13:37:54;20.50;51.00
16287;DHT22;8251;53.568;10.018;2022-09-20T13:40:24;20.50;51.30
16287;DHT22;8251;53.568;10.018;2022-09-20T13:42:59;20.30;52.30
16287;DHT22;8251;53.568;10.018;2022-09-20T13:45:27;20.20;52.60
16287;DHT22;8251;53.568;10.018;2022-09-20T13:47:57;20.10;52.50
16287;DHT22;8251;53.568;10.018;2022-09-20T13:50:28;19.90;51.20
16287;DHT22;8251;53.568;10.018;2022-09-20T13:52:58;19.90;51.40
16287;DHT22;8251;53.568;10.018;2022-09-20T13:55:31;19.80;52.40
16287;DHT22;8251;53.568;10.018;2022-09-20T13:58:00;19.80;53.20
16287;DHT22;8251;53.568;10.018;2022-09-20T14:00:30;19.80;53.60
16287;DHT22;8251;53.568;10.018;2022-09-20T14:02:59;19.80;53.80
16287;DHT22;8251;53.568;10.018;2022-09-20T14:05:28;19.70;54.30
16287;DHT22;8251;53.568;10.018;2022-09-20T14:07:58;19.70;54.70
16287;DHT22;8251;53.568;10.018;2022-09-20T14:10:31;19.70;55.00
16287;DHT22;8251;53.568;10.018;2022-09-20T14:13:01;19.70;54.20
16287;DHT22;8251;53.568;10.018;2022-09-20T14:15:33;19.60;53.00
16287;DHT22;8251;53.568;10.018;2022-09-20T14:18:01;19.60;52.90
16287;DHT22;8251;53.568;10.018;2022-09-20T14:20:30;19.60;52.50
16287;DHT22;8251;53.568;10.018;2022-09-20T14:22:58;19.60;52.60
16287;DHT22;8251;53.568;10.018;2022-09-20T14:25:26;19.50;53.20
16287;DHT22;8251;53.568;10.018;2022-09-20T14:28:15;19.50;52.30
16287;DHT22;8251;53.568;10.018;2022-09-20T14:30:44;19.50;51.60
16287;DHT22;8251;53.568;10.018;2022-09-20T14:33:15;19.40;52.30
16287;DHT22;8251;53.568;10.018;2022-09-20T14:35:47;19.50;53.10
16287;DHT22;8251;53.568;10.018;2022-09-20T14:38:17;19.40;52.90
16287;DHT22;8251;53.568;10.018;2022-09-20T14:40:52;19.50;52.60
16287;DHT22;8251;53.568;10.018;2022-09-20T14:43:25;19.50;52.50
16287;DHT22;8251;53.568;10.018;2022-09-20T14:45:56;19.50;52.50
16287;DHT22;8251;53.568;10.018;2022-09-20T14:48:33;19.50;53.40
16287;DHT22;8251;53.568;10.018;2022-09-20T14:51:21;19.50;51.60
16287;DHT22;8251;53.568;10.018;2022-09-20T14:53:52;19.50;52.00
16287;DHT22;8251;53.568;10.018;2022-09-20T14:56:41;19.40;51.70
16287;DHT22;8251;53.568;10.018;2022-09-20T14:59:33;19.40;51.80
16287;DHT22;8251;53.568;10.018;2022-09-20T15:02:02;19.40;51.80
16287;DHT22;8251;53.568;10.018;2022-09-20T15:04:30;19.30;51.80
16287;DHT22;8251;53.568;10.018;2022-09-20T15:07:01;19.30;53.20
16287;DHT22;8251;53.568;10.018;2022-09-20T15:09:30;19.30;53.40
16287;DHT22;8251;53.568;10.018;2022-09-20T15:12:01;19.30;53.20
16287;DHT22;8251;53.568;10.018;2022-09-20T15:14:29;19.30;53.40
16287;DHT22;8251;53.568;10.018;2022-09-20T15:16:56;19.30;53.20
16287;DHT22;8251;53.568;10.018;2022-09-20T15:19:26;19.30;52.90
16287;DHT22;8251;53.568;10.018;2022-09-20T15:21:59;19.30;52.90
16287;DHT22;8251;53.568;10.018;2022-09-20T15:24:35;19.30;53.00
16287;DHT22;8251;53.568;10.018;2022-09-20T15:27:17;19.30;52.60
16287;DHT22;8251;53.568;10.018;2022-09-20T15:29:44;19.30;52.90
16287;DHT22;8251;53.568;10.018;2022-09-20T15:32:15;19.30;52.00
16287;DHT22;8251;53.568;10.018;2022-09-20T15:34:49;19.20;51.80
16287;DHT22;8251;53.568;10.018;2022-09-20T15:37:22;19.20;51.80
16287;DHT22;8251;53.568;10.018;2022-09-20T15:39:50;19.20;51.40
16287;DHT22;8251;53.568;10.018;2022-09-20T15:42:17;19.20;51.30
16287;DHT22;8251;53.568;10.018;2022-09-20T15:44:47;19.20;51.60
16287;DHT22;8251;53.568;10.018;2022-09-20T15:47:16;19.20;52.00
16287;DHT22;8251;53.568;10.018;2022-09-20T15:49:43;19.30;52.00
16287;DHT22;8251;53.568;10.018;2022-09-20T15:52:11;19.30;51.80
16287;DHT22;8251;53.568;10.018;2022-09-20T15:54:38;19.30;52.40
16287;DHT22;8251;53.568;10.018;2022-09-20T15:57:07;19.40;52.70
16287;DHT22;8251;53.568;10.018;2022-09-20T15:59:34;19.50;52.80
16287;DHT22;8251;53.568;10.018;2022-09-20T16:02:01;19.40;52.30
16287;DHT22;8251;53.568;10.018;2022-09-20T16:04:34;19.40;52.70
16287;DHT22;8251;53.568;10.018;2022-09-20T16:07:11;19.40;53.00
16287;DHT22;8251;53.568;10.018;2022-09-20T16:09:47;19.30;52.40
16287;DHT22;8251;53.568;10.018;2022-09-20T16:12:18;19.20;52.40
16287;DHT22;8251;53.568;10.018;2022-09-20T16:14:45;19.20;52.80
16287;DHT22;8251;53.568;10.018;2022-09-20T16:17:13;19.20;53.00
16287;DHT22;8251;53.568;10.018;2022-09-20T16:19:39;19.10;53.30
16287;DHT22;8251;53.568;10.018;2022-09-20T16:22:06;19.10;53.60
16287;DHT22;8251;53.568;10.018;2022-09-20T16:24:35;19.10;54.10
16287;DHT22;8251;53.568;10.018;2022-09-20T16:27:03;19.10;54.40
16287;DHT22;8251;53.568;10.018;2022-09-20T16:29:32;19.00;54.00
16287;DHT22;8251;53.568;10.018;2022-09-20T16:32:00;19.00;54.30
16287;DHT22;8251;53.568;10.018;2022-09-20T16:34:29;19.00;54.90
16287;DHT22;8251;53.568;10.018;2022-09-20T16:36:57;19.00;55.20
16287;DHT22;8251;53.568;10.018;2022-09-20T16:39:25;19.00;55.90
16287;DHT22;8251;53.568;10.018;2022-09-20T16:41:54;18.90;54.80
16287;DHT22;8251;53.568;10.018;2022-09-20T16:44:22;18.80;55.00
16287;DHT22;8251;53.568;10.018;2022-09-20T16:46:51;18.80;55.40
16287;DHT22;8251;53.568;10.018;2022-09-20T16:49:17;18.80;55.40
16287;DHT22;8251;53.568;10.018;2022-09-20T16:51:45;18.70;55.80
16287;DHT22;8251;53.568;10.018;2022-09-20T16:54:13;18.70;56.40
16287;DHT22;8251;53.568;10.018;2022-09-20T16:56:44;18.70;56.70
16287;DHT22;8251;53.568;10.018;2022-09-20T16:59:21;18.60;56.90
16287;DHT22;8251;53.568;10.018;2022-09-20T17:01:53;18.60;57.30